createdAt,value
2023-02-05T00:01:00.842Z,97.83
2023-02-05T00:03:44.680Z,97.52
2023-02-05T00:06:29.364Z,96.79
2023-02-05T00:09:13.784Z,96.12
2023-02-05T00:11:59.527Z,96.07
2023-02-05T00:14:43.423Z,95.32
2023-02-05T00:17:27.307Z,95.29
2023-02-05T00:20:12.336Z,94.74
2023-02-05T00:22:56.988Z,94.19
2023-02-05T00:25:40.679Z,94.77
2023-02-05T00:28:25.865Z,94.79
2023-02-05T00:31:11.317Z,94.54
2023-02-05T00:33:55.235Z,94.38
2023-02-05T00:36:38.977Z,94.16
2023-02-05T00:39:22.818Z,94.54
2023-02-05T00:42:06.777Z,93.02
2023-02-05T00:44:52.022Z,93.95
2023-02-05T00:47:35.852Z,93.46
2023-02-05T00:50:19.848Z,93.44
2023-02-05T00:53:03.953Z,94.30
2023-02-05T00:55:47.904Z,93.20
2023-02-05T00:58:31.966Z,93.10
2023-02-05T01:01:17.918Z,93.92
2023-02-05T01:04:01.734Z,93.40
2023-02-05T01:06:45.785Z,93.14
2023-02-05T01:09:29.527Z,94.23
2023-02-05T01:12:15.120Z,94.04
2023-02-05T01:14:59.527Z,93.78
2023-02-05T01:17:44.868Z,93.40
2023-02-05T01:20:29.099Z,96.00
2023-02-05T01:23:13.259Z,93.49
2023-02-05T01:25:56.992Z,92.84
2023-02-05T01:28:40.841Z,92.69
2023-02-05T01:31:25.839Z,92.36
2023-02-05T01:34:11.074Z,92.44
2023-02-05T01:36:54.811Z,91.69
2023-02-05T01:39:39.498Z,91.54
2023-02-05T01:42:26.418Z,91.74
2023-02-05T01:45:51.048Z,90.88
2023-02-05T01:48:39.262Z,91.36
2023-02-05T01:51:26.050Z,91.89
2023-02-05T01:54:10.279Z,91.18
2023-02-05T01:56:58.653Z,91.61
2023-02-05T01:59:44.135Z,91.21
2023-02-05T02:02:29.963Z,90.08
2023-02-05T02:05:16.104Z,91.07
2023-02-05T02:08:01.472Z,90.69
2023-02-05T02:10:47.519Z,90.43
2023-02-05T02:13:34.395Z,90.23
2023-02-05T02:16:22.969Z,90.01
2023-02-05T02:19:13.875Z,89.32
2023-02-05T02:22:32.117Z,88.29
2023-02-05T02:25:48.273Z,88.67
2023-02-05T02:28:36.802Z,88.79
2023-02-05T02:31:30.427Z,88.52
2023-02-05T02:34:19.644Z,88.94
2023-02-05T02:37:09.780Z,88.65
2023-02-05T02:40:02.283Z,87.83
2023-02-05T02:42:52.140Z,87.26
2023-02-05T02:45:44.575Z,87.51
2023-02-05T02:48:31.380Z,87.53
2023-02-05T02:51:20.570Z,87.86
2023-02-05T02:54:09.276Z,87.42
2023-02-05T02:56:55.584Z,87.83
2023-02-05T02:59:42.243Z,87.07
2023-02-05T03:02:30.392Z,87.87
2023-02-05T03:05:18.566Z,86.87
2023-02-05T03:08:07.547Z,87.28
2023-02-05T03:10:57.281Z,87.22
2023-02-05T03:13:41.356Z,86.87
2023-02-05T03:16:27.087Z,86.45
2023-02-05T03:19:12.566Z,85.57
2023-02-05T03:22:01.599Z,85.62
2023-02-05T03:24:45.657Z,85.45
2023-02-05T03:27:29.944Z,85.96
2023-02-05T03:30:16.627Z,86.31
2023-02-05T03:33:13.539Z,85.61
2023-02-05T03:36:08.213Z,85.13
2023-02-05T03:39:21.478Z,84.56
2023-02-05T03:42:17.120Z,84.84
2023-02-05T03:45:22.386Z,85.27
2023-02-05T03:48:18.930Z,85.01
2023-02-05T03:51:19.458Z,85.54
2023-02-05T03:54:10.782Z,85.56
2023-02-05T03:57:02.149Z,83.98
2023-02-05T03:59:50.257Z,84.97
2023-02-05T04:02:34.361Z,85.12
2023-02-05T04:05:21.153Z,85.64
2023-02-05T04:08:07.690Z,86.01
2023-02-05T04:10:59.204Z,85.74
2023-02-05T04:13:44.151Z,86.01
2023-02-05T04:16:28.994Z,86.35
2023-02-05T04:19:14.260Z,86.69
2023-02-05T04:21:58.233Z,86.02
2023-02-05T04:24:43.642Z,85.54
2023-02-05T04:27:27.715Z,86.00
2023-02-05T04:30:14.394Z,85.72
2023-02-05T04:33:01.201Z,85.80
2023-02-05T04:35:45.261Z,85.74
2023-02-05T04:38:30.309Z,85.44
2023-02-05T04:41:15.480Z,85.25
2023-02-05T04:43:59.249Z,85.35
2023-02-05T04:46:43.191Z,85.09
2023-02-05T04:49:27.069Z,84.89
2023-02-05T04:52:10.811Z,84.58
2023-02-05T04:54:54.637Z,84.93
2023-02-05T04:57:40.106Z,85.15
2023-02-05T05:00:24.259Z,84.86
2023-02-05T05:03:08.147Z,84.62
2023-02-05T05:05:52.168Z,85.14
2023-02-05T05:08:36.415Z,85.22
2023-02-05T05:11:21.051Z,84.53
2023-02-05T05:14:06.300Z,84.50
2023-02-05T05:16:50.634Z,84.90
2023-02-05T05:19:34.798Z,84.27
2023-02-05T05:22:18.649Z,84.45
2023-02-05T05:25:02.476Z,85.08
2023-02-05T05:27:47.250Z,84.73
2023-02-05T05:30:32.545Z,85.26
2023-02-05T05:33:16.926Z,85.61
2023-02-05T05:36:00.910Z,84.82
2023-02-05T05:38:45.125Z,85.12
2023-02-05T05:41:46.646Z,84.93
2023-02-05T05:44:30.469Z,84.86
2023-02-05T05:47:15.727Z,84.28
2023-02-05T05:49:59.508Z,83.63
2023-02-05T05:52:43.254Z,83.33
2023-02-05T05:55:27.288Z,84.23
2023-02-05T05:58:11.746Z,83.51
2023-02-05T06:00:56.340Z,84.46
2023-02-05T06:03:41.656Z,83.80
2023-02-05T06:06:25.467Z,84.22
2023-02-05T06:09:09.387Z,83.83
2023-02-05T06:11:53.313Z,84.35
2023-02-05T06:14:37.614Z,84.20
2023-02-05T06:17:21.685Z,83.67
2023-02-05T06:20:08.132Z,83.82
2023-02-05T06:22:51.917Z,83.09
2023-02-05T06:25:36.224Z,82.36
2023-02-05T06:28:20.181Z,83.53
2023-02-05T06:31:04.061Z,83.49
2023-02-05T06:33:47.848Z,83.41
2023-02-05T06:36:33.002Z,83.01
2023-02-05T06:39:16.766Z,82.66
2023-02-05T06:42:00.813Z,81.74
2023-02-05T06:44:44.673Z,81.94
2023-02-05T06:47:28.479Z,82.83
2023-02-05T06:50:12.383Z,81.39
2023-02-05T06:52:57.525Z,82.03
2023-02-05T06:55:41.517Z,82.11
2023-02-05T06:58:25.366Z,81.05
2023-02-05T07:01:09.341Z,81.33
2023-02-05T07:03:56.369Z,81.22
2023-02-05T07:06:40.191Z,81.36
2023-02-05T07:09:26.092Z,80.76
2023-02-05T07:12:09.964Z,80.38
2023-02-05T07:14:53.728Z,80.75
2023-02-05T07:17:38.656Z,80.69
2023-02-05T07:20:23.462Z,79.99
2023-02-05T07:23:08.221Z,80.63
2023-02-05T07:25:53.622Z,79.86
2023-02-05T07:28:37.909Z,80.39
2023-02-05T07:31:22.037Z,79.75
2023-02-05T07:34:05.774Z,78.86
2023-02-05T07:36:51.697Z,79.90
2023-02-05T07:39:35.494Z,79.04
2023-02-05T07:42:21.751Z,78.51
2023-02-05T07:45:12.272Z,79.32
2023-02-05T07:47:56.080Z,78.36
2023-02-05T07:50:44.018Z,78.09
2023-02-05T07:53:28.112Z,77.71
2023-02-05T07:56:12.287Z,77.20
2023-02-05T07:58:57.570Z,77.34
2023-02-05T08:01:41.475Z,77.22
2023-02-05T08:04:25.357Z,76.65
2023-02-05T08:07:09.370Z,77.38
2023-02-05T08:09:53.262Z,75.92
2023-02-05T08:12:36.983Z,75.35
2023-02-05T08:15:22.506Z,75.74
2023-02-05T08:18:06.384Z,75.83
2023-02-05T08:20:53.465Z,75.15
2023-02-05T08:23:37.397Z,74.80
2023-02-05T08:26:21.342Z,74.21
2023-02-05T08:29:05.450Z,73.52
2023-02-05T08:31:50.737Z,73.69
2023-02-05T08:34:34.580Z,73.47
2023-02-05T08:37:18.484Z,72.80
2023-02-05T08:40:02.422Z,72.27
2023-02-05T08:42:49.279Z,70.94
2023-02-05T08:45:33.516Z,70.85
2023-02-05T08:48:18.886Z,69.86
2023-02-05T08:51:02.782Z,70.02
2023-02-05T08:53:47.019Z,70.60
2023-02-05T08:56:31.069Z,69.53
2023-02-05T08:59:15.227Z,70.44
2023-02-05T09:01:59.107Z,68.01
2023-02-05T09:04:44.589Z,69.31
2023-02-05T09:07:28.364Z,68.69
2023-02-05T09:10:14.108Z,67.96
2023-02-05T09:12:57.960Z,68.94
2023-02-05T09:15:43.751Z,70.11
2023-02-05T09:18:27.680Z,69.53
2023-02-05T09:21:12.953Z,68.73
2023-02-05T09:23:58.245Z,67.66
2023-02-05T09:26:42.149Z,68.47
2023-02-05T09:29:26.352Z,68.01
2023-02-05T09:32:10.266Z,67.45
2023-02-05T09:34:53.963Z,66.09
2023-02-05T09:37:39.546Z,67.58
2023-02-05T09:40:28.212Z,66.80
2023-02-05T09:43:27.955Z,66.85
2023-02-05T09:46:15.532Z,64.69
2023-02-05T09:49:04.523Z,66.18
2023-02-05T09:51:52.143Z,65.35
2023-02-05T09:54:42.843Z,64.05
2023-02-05T09:57:34.143Z,62.92
2023-02-05T10:00:22.769Z,62.39
2023-02-05T10:03:15.774Z,62.13
2023-02-05T10:06:26.402Z,61.75
2023-02-05T10:09:27.041Z,62.59
2023-02-05T10:12:24.138Z,62.76
2023-02-05T10:15:23.480Z,62.75
2023-02-05T10:18:21.699Z,62.38
2023-02-05T10:21:18.563Z,62.81
2023-02-05T10:24:18.089Z,62.62
2023-02-05T10:27:11.195Z,65.90
2023-02-05T10:30:05.061Z,64.62
2023-02-05T10:32:57.752Z,65.14
2023-02-05T10:35:51.014Z,66.04
2023-02-05T10:38:40.063Z,65.98
2023-02-05T10:41:29.720Z,63.43
2023-02-05T10:44:19.507Z,64.39
2023-02-05T10:47:11.372Z,64.37
2023-02-05T10:50:01.602Z,64.93
2023-02-05T10:52:45.715Z,65.31
2023-02-05T10:55:30.282Z,65.10
2023-02-05T10:58:30.101Z,63.79
2023-02-05T11:01:17.845Z,64.92
2023-02-05T11:04:07.490Z,65.78
2023-02-05T11:06:53.337Z,67.22
2023-02-05T11:09:37.152Z,66.55
2023-02-05T11:12:30.432Z,66.55
2023-02-05T11:15:23.836Z,66.38
2023-02-05T11:18:10.359Z,66.92
2023-02-05T11:21:00.559Z,66.51
2023-02-05T11:23:57.218Z,66.77
2023-02-05T11:26:41.136Z,66.38
2023-02-05T11:29:25.858Z,65.71
2023-02-05T11:32:20.769Z,65.98
2023-02-05T11:35:19.709Z,66.43
2023-02-05T11:38:11.903Z,65.77
2023-02-05T11:40:56.285Z,64.77
2023-02-05T11:43:46.772Z,65.43
2023-02-05T11:46:38.105Z,65.53
2023-02-05T11:49:24.785Z,64.02
2023-02-05T11:52:11.111Z,65.07
2023-02-05T11:54:56.991Z,64.95
2023-02-05T11:57:41.997Z,63.61
2023-02-05T12:00:27.028Z,63.72
2023-02-05T12:03:19.620Z,63.70
2023-02-05T12:06:18.219Z,64.10
2023-02-05T12:09:02.840Z,64.53
2023-02-05T12:12:11.847Z,62.39
2023-02-05T12:15:04.792Z,63.04
2023-02-05T12:17:56.002Z,62.39
2023-02-05T12:20:44.222Z,61.95
2023-02-05T12:23:37.252Z,62.70
2023-02-05T12:26:31.071Z,62.71
2023-02-05T12:29:44.757Z,63.63
2023-02-05T12:32:40.268Z,62.66
2023-02-05T12:35:35.815Z,62.26
2023-02-05T12:38:32.370Z,61.00
2023-02-05T12:41:31.437Z,59.81
2023-02-05T12:44:28.159Z,62.00
2023-02-05T12:47:28.740Z,60.42
2023-02-05T12:50:23.797Z,60.53
2023-02-05T12:53:22.106Z,60.13
2023-02-05T12:56:33.649Z,60.63
2023-02-05T12:59:32.817Z,62.03
2023-02-05T13:02:24.648Z,61.45
2023-02-05T13:05:17.390Z,60.99
2023-02-05T13:08:07.672Z,60.24
2023-02-05T13:10:56.247Z,59.58
2023-02-05T13:13:52.323Z,59.44
2023-02-05T13:16:41.661Z,59.75
2023-02-05T13:19:32.179Z,60.42
2023-02-05T13:22:38.628Z,60.93
2023-02-05T13:25:45.371Z,63.42
2023-02-05T13:28:41.415Z,64.12
2023-02-05T13:31:29.038Z,64.05
2023-02-05T13:34:17.025Z,65.34
2023-02-05T13:37:20.014Z,63.68
2023-02-05T13:40:21.504Z,61.03
2023-02-05T13:43:32.971Z,62.56
2023-02-05T13:46:46.820Z,64.11
2023-02-05T13:50:07.658Z,64.88
2023-02-05T13:53:26.829Z,65.06
2023-02-05T13:56:34.869Z,64.24
2023-02-05T13:59:23.761Z,63.58
2023-02-05T14:02:30.791Z,64.16
2023-02-05T14:05:15.718Z,64.06
2023-02-05T14:08:03.205Z,65.50
2023-02-05T14:10:57.238Z,65.48
2023-02-05T14:13:41.626Z,66.08
2023-02-05T14:16:37.779Z,66.37
2023-02-05T14:19:25.812Z,66.14
2023-02-05T14:22:13.925Z,65.46
2023-02-05T14:24:57.814Z,64.57
2023-02-05T14:27:51.229Z,65.71
2023-02-05T14:30:57.305Z,66.92
2023-02-05T14:33:42.147Z,65.39
2023-02-05T14:36:41.389Z,67.06
2023-02-05T14:39:30.316Z,65.68
2023-02-05T14:42:21.537Z,64.30
2023-02-05T14:45:08.024Z,65.47
2023-02-05T14:47:52.623Z,65.72
2023-02-05T14:50:38.317Z,65.99
2023-02-05T14:53:26.731Z,65.74
2023-02-05T14:56:26.215Z,65.22
2023-02-05T14:59:23.220Z,65.37
2023-02-05T15:03:02.004Z,65.08
2023-02-05T15:05:53.974Z,64.15
2023-02-05T15:08:45.552Z,63.56
2023-02-05T15:11:46.170Z,65.02
2023-02-05T15:14:41.788Z,64.28
2023-02-05T15:17:51.471Z,64.46
2023-02-05T15:20:39.915Z,63.93
2023-02-05T15:23:36.528Z,63.60
2023-02-05T15:26:26.304Z,63.70
2023-02-05T15:29:20.072Z,63.29
2023-02-05T15:32:07.375Z,63.09
2023-02-05T15:34:56.274Z,63.25
2023-02-05T15:37:45.108Z,63.09
2023-02-05T15:40:31.678Z,64.99
2023-02-05T15:43:20.207Z,66.59
2023-02-05T15:46:07.736Z,66.24
2023-02-05T15:48:52.273Z,67.78
2023-02-05T15:51:38.983Z,67.58
2023-02-05T15:54:23.790Z,68.19
2023-02-05T15:57:14.415Z,67.71
2023-02-05T16:00:00.615Z,68.60
2023-02-05T16:02:54.811Z,68.56
2023-02-05T16:05:38.615Z,67.99
2023-02-05T16:08:28.160Z,66.90
2023-02-05T16:11:11.998Z,66.26
2023-02-05T16:14:13.630Z,65.58
2023-02-05T16:17:07.766Z,65.09
2023-02-05T16:19:55.289Z,64.88
2023-02-05T16:22:42.128Z,65.52
2023-02-05T16:25:37.563Z,65.16
2023-02-05T16:28:25.660Z,64.43
2023-02-05T16:31:11.569Z,65.00
2023-02-05T16:33:58.539Z,64.61
2023-02-05T16:36:46.273Z,65.12
2023-02-05T16:39:38.497Z,64.39
2023-02-05T16:42:38.635Z,64.72
2023-02-05T16:45:24.755Z,65.26
2023-02-05T16:48:23.912Z,63.94
2023-02-05T16:51:07.706Z,64.36
2023-02-05T16:53:51.702Z,64.70
2023-02-05T16:56:39.266Z,65.18
2023-02-05T16:59:26.692Z,65.45
2023-02-05T17:02:23.656Z,65.82
2023-02-05T17:05:10.319Z,64.95
2023-02-05T17:07:57.127Z,64.88
2023-02-05T17:10:52.193Z,66.18
2023-02-05T17:13:40.931Z,65.99
2023-02-05T17:16:30.764Z,65.60
2023-02-05T17:19:33.292Z,66.18
2023-02-05T17:22:21.563Z,66.05
2023-02-05T17:25:06.118Z,65.86
2023-02-05T17:27:50.145Z,65.44
2023-02-05T17:30:34.744Z,65.05
2023-02-05T17:33:22.015Z,65.23
2023-02-05T17:36:06.203Z,65.49
2023-02-05T17:38:50.313Z,65.14
2023-02-05T17:41:55.806Z,64.81
2023-02-05T17:44:39.526Z,64.40
2023-02-05T17:47:23.341Z,64.41
2023-02-05T17:50:08.963Z,64.41
2023-02-05T17:52:55.078Z,64.18
2023-02-05T17:55:40.264Z,64.27
2023-02-05T17:58:24.188Z,64.96
2023-02-05T18:01:08.194Z,64.86
2023-02-05T18:03:51.974Z,64.29
2023-02-05T18:06:38.551Z,63.96
2023-02-05T18:09:22.416Z,63.96
2023-02-05T18:12:06.456Z,64.00
2023-02-05T18:14:50.493Z,64.06
2023-02-05T18:17:34.484Z,63.75
2023-02-05T18:20:21.119Z,65.56
2023-02-05T18:23:06.461Z,64.83
2023-02-05T18:25:50.346Z,65.44
2023-02-05T18:28:34.120Z,65.41
2023-02-05T18:31:18.052Z,64.64
2023-02-05T18:34:02.107Z,65.43
2023-02-05T18:36:45.984Z,65.65
2023-02-05T18:39:31.211Z,65.95
2023-02-05T18:42:15.267Z,66.73
2023-02-05T18:44:59.502Z,66.28
2023-02-05T18:47:47.416Z,66.77
2023-02-05T18:50:31.433Z,66.73
2023-02-05T18:53:15.417Z,67.02
2023-02-05T18:56:04.811Z,67.32
2023-02-05T18:58:53.223Z,67.91
2023-02-05T19:01:39.740Z,67.05
2023-02-05T19:04:24.930Z,68.10
2023-02-05T19:07:09.321Z,67.35
2023-02-05T19:09:53.205Z,68.02
2023-02-05T19:12:38.626Z,67.76
2023-02-05T19:15:22.642Z,67.60
2023-02-05T19:18:07.571Z,67.64
2023-02-05T19:20:51.564Z,67.72
2023-02-05T19:23:35.487Z,68.00
2023-02-05T19:26:22.326Z,68.24
2023-02-05T19:29:09.780Z,68.26
2023-02-05T19:31:54.517Z,68.65
2023-02-05T19:34:40.653Z,68.94
2023-02-05T19:37:24.586Z,69.33
2023-02-05T19:40:09.547Z,69.09
2023-02-05T19:42:56.586Z,69.65
2023-02-05T19:45:42.182Z,69.85
2023-02-05T19:48:26.131Z,69.63
2023-02-05T19:51:11.850Z,69.69
2023-02-05T19:53:58.080Z,70.62
2023-02-05T19:56:42.608Z,70.54
2023-02-05T19:59:26.689Z,71.04
2023-02-05T20:02:17.250Z,71.00
2023-02-05T20:05:01.099Z,71.14
2023-02-05T20:07:50.099Z,71.59
2023-02-05T20:10:34.192Z,71.70
2023-02-05T20:13:18.170Z,71.76
2023-02-05T20:16:03.778Z,72.18
2023-02-05T20:18:53.856Z,72.58
2023-02-05T20:21:38.644Z,72.96
2023-02-05T20:24:22.545Z,72.36
2023-02-05T20:27:06.348Z,72.82
2023-02-05T20:30:07.511Z,74.01
2023-02-05T20:32:51.547Z,73.77
2023-02-05T20:35:37.742Z,74.21
2023-02-05T20:38:21.989Z,73.90
2023-02-05T20:41:12.518Z,74.87
2023-02-05T20:43:58.164Z,74.94
2023-02-05T20:46:42.143Z,75.28
2023-02-05T20:49:26.104Z,75.44
2023-02-05T20:52:12.115Z,75.95
2023-02-05T20:54:57.259Z,75.80
2023-02-05T20:57:41.499Z,76.32
2023-02-05T21:00:27.281Z,76.64
2023-02-05T21:03:11.186Z,77.25
2023-02-05T21:05:58.207Z,77.38
2023-02-05T21:08:45.859Z,77.86
2023-02-05T21:11:30.663Z,77.31
2023-02-05T21:14:14.755Z,77.71
2023-02-05T21:16:58.567Z,77.78
2023-02-05T21:19:42.450Z,77.40
2023-02-05T21:22:26.404Z,78.50
2023-02-05T21:25:11.767Z,78.67
2023-02-05T21:27:56.784Z,79.12
2023-02-05T21:30:41.733Z,78.67
2023-02-05T21:33:26.579Z,78.98
2023-02-05T21:36:12.506Z,78.82
2023-02-05T21:38:56.472Z,79.10
2023-02-05T21:41:41.709Z,79.24
2023-02-05T21:44:25.624Z,78.74
2023-02-05T21:47:09.331Z,78.81
2023-02-05T21:49:53.109Z,78.81
2023-02-05T21:52:36.816Z,78.87
2023-02-05T21:55:22.306Z,78.96
2023-02-05T21:58:07.598Z,79.29
2023-02-05T22:00:51.387Z,78.66
2023-02-05T22:03:35.284Z,78.99
2023-02-05T22:06:19.473Z,79.67
2023-02-05T22:09:05.080Z,80.40
2023-02-05T22:11:50.511Z,79.94
2023-02-05T22:14:35.920Z,80.28
2023-02-05T22:17:19.788Z,80.24
2023-02-05T22:20:03.648Z,80.21
2023-02-05T22:22:47.606Z,80.15
2023-02-05T22:25:31.480Z,80.62
2023-02-05T22:28:15.431Z,80.58
2023-02-05T22:31:05.513Z,80.59
2023-02-05T22:33:50.616Z,79.77
2023-02-05T22:36:36.104Z,80.50
2023-02-05T22:39:19.998Z,80.77
2023-02-05T22:42:04.829Z,80.92
2023-02-05T22:44:48.648Z,80.76
2023-02-05T22:47:34.079Z,81.49
2023-02-05T22:50:20.966Z,80.68
2023-02-05T22:53:04.859Z,81.04
2023-02-05T22:55:48.642Z,81.30
2023-02-05T22:58:32.871Z,81.60
2023-02-05T23:01:18.410Z,80.78
2023-02-05T23:04:05.104Z,80.60
2023-02-05T23:06:48.970Z,80.93
2023-02-05T23:09:34.499Z,81.15
2023-02-05T23:12:18.400Z,81.04
2023-02-05T23:15:02.120Z,81.32
2023-02-05T23:17:46.831Z,80.81
2023-02-05T23:20:31.963Z,81.01
2023-02-05T23:23:15.693Z,81.18
2023-02-05T23:25:59.544Z,80.68
2023-02-05T23:28:43.818Z,81.57
2023-02-05T23:31:28.721Z,81.83
2023-02-05T23:34:13.086Z,81.49
2023-02-05T23:36:58.220Z,81.61
2023-02-05T23:39:42.023Z,81.10
2023-02-05T23:42:25.763Z,81.74
2023-02-05T23:45:09.746Z,81.60
2023-02-05T23:47:53.615Z,81.32
2023-02-05T23:50:37.596Z,81.75
2023-02-05T23:53:22.898Z,82.89
2023-02-05T23:56:06.815Z,84.10
2023-02-05T23:58:50.677Z,82.82
